Pagrindinis puslapis
METAR-TAF:

METAR-TAF

Oro uostai :

Trasa Zeltweg

Zeltweg, Austrija

platuma: 47-12N, ilguma: 014-45E, Aukštis: 677 m

Dabartinis oras

Ataskaita buvo paskelbta 35 minutes, ne 09:20 UTC
Vėjas 2 kt iš Rytų/Šiaurės Rytų
Temperatūra 10°C
Drėgmė 62%
Slėgis 1029 hPa

METAR: LOXZ 200920Z 06002KT 40KM FEW060SC SCT300CI 10/03 Q1029 NOSIG

Laikas: 11:55 (09:55 UTC)

Prognozė

Ataskaita buvo paskelbta 1 valandą ir 40 minutes, ne 08:15 UTC
Prognozė galioja nuo 20 metu 09 UTC su 20 metu 18 UTC
Vėjas 3 kt nuo kintamojo kryptimis
Matomumas 10 km arba daugiau
Mažai debesys ne aukštis 6000 ft
Išsisklaidę debesys ne aukštis 30000 ft
Laikinai
nuo 20 metu 10 UTC su 20 metu 15 UTC
Vėjas 10 kt iš Rytų/Šiaurės Rytų

TAF: LOXZ 200815Z 2009/2018 VRB03KT 9999 FEW060 SCT300 TEMPO 2010/2015 07010KT

Orai ataskaitas ir orų prognozės (METAR, TAF).

turimą stotys yra geltonos ir raudonos taškus žemėlapyje.

Perkelti pele per norėdami pamatyti stoties vardą.

Tada spustelėkite, norėdami matyti oro stebėjimo ir prognozės.

Norėdami pakeisti žemėlapį: spustelėkite ant žalios mygtukų su juodo kryžiaus žemyn,; žalią mygtuką su brūkšneliu, jei norite nutolinti; arba žalių rodyklių gretimoms žemėlapius.


METAR-TAF: